createdAt,value
2019-05-01T00:00:51.883Z,10.80
2019-05-01T00:03:32.840Z,10.69
2019-05-01T00:06:05.977Z,10.68
2019-05-01T00:08:37.513Z,10.64
2019-05-01T00:11:08.032Z,10.66
2019-05-01T00:13:38.492Z,10.62
2019-05-01T00:16:08.945Z,10.62
2019-05-01T00:18:39.418Z,10.64
2019-05-01T00:21:10.854Z,10.60
2019-05-01T00:23:41.317Z,10.57
2019-05-01T00:26:12.757Z,10.52
2019-05-01T00:28:43.285Z,10.55
2019-05-01T00:31:13.762Z,10.58
2019-05-01T00:33:45.273Z,10.53
2019-05-01T00:36:15.972Z,10.57
2019-05-01T00:38:46.444Z,10.55
2019-05-01T00:41:16.829Z,10.46
2019-05-01T00:43:47.221Z,10.43
2019-05-01T00:46:17.672Z,10.44
2019-05-01T00:48:52.110Z,10.39
2019-05-01T00:51:22.602Z,10.38
2019-05-01T00:53:53.073Z,10.34
2019-05-01T00:56:41.862Z,10.30
2019-05-01T00:59:24.124Z,10.33
2019-05-01T01:02:08.285Z,10.33
2019-05-01T01:04:38.771Z,10.35
2019-05-01T01:07:10.404Z,10.32
2019-05-01T01:09:40.935Z,10.39
2019-05-01T01:12:11.513Z,10.41
2019-05-01T01:14:41.998Z,10.41
2019-05-01T01:17:12.440Z,10.35
2019-05-01T01:19:42.950Z,10.32
2019-05-01T01:22:13.405Z,10.25
2019-05-01T01:24:43.891Z,10.33
2019-05-01T01:27:14.849Z,10.35
2019-05-01T01:29:45.922Z,10.37
2019-05-01T01:32:16.409Z,10.41
2019-05-01T01:34:47.947Z,10.38
2019-05-01T01:37:20.518Z,10.37
2019-05-01T01:39:51.013Z,10.34
2019-05-01T01:42:23.086Z,10.28
2019-05-01T01:44:56.680Z,10.29
2019-05-01T01:47:27.140Z,10.27
2019-05-01T01:49:58.134Z,10.29
2019-05-01T01:52:28.741Z,10.17
2019-05-01T01:54:59.230Z,10.24
2019-05-01T01:57:31.013Z,10.31
2019-05-01T02:00:01.518Z,10.34
2019-05-01T02:02:35.784Z,10.34
2019-05-01T02:05:08.944Z,10.34
2019-05-01T02:07:39.514Z,10.31
2019-05-01T02:10:10.133Z,10.37
2019-05-01T02:12:41.621Z,10.46
2019-05-01T02:15:12.264Z,10.44
2019-05-01T02:17:42.746Z,10.44
2019-05-01T02:20:14.341Z,10.44
2019-05-01T02:22:45.916Z,10.41
2019-05-01T02:25:16.714Z,10.35
2019-05-01T02:28:05.721Z,10.33
2019-05-01T02:30:36.156Z,10.46
2019-05-01T02:33:07.043Z,10.43
2019-05-01T02:35:38.701Z,10.45
2019-05-01T02:38:10.477Z,10.40
2019-05-01T02:40:49.205Z,10.42
2019-05-01T02:43:21.523Z,10.40
2019-05-01T02:45:53.439Z,10.33
2019-05-01T02:48:25.454Z,10.35
2019-05-01T02:50:58.386Z,10.35
2019-05-01T02:53:30.340Z,10.36
2019-05-01T02:56:15.092Z,10.43
2019-05-01T02:58:48.747Z,10.43
2019-05-01T03:01:19.570Z,10.42
2019-05-01T03:03:50.999Z,10.45
2019-05-01T03:06:22.194Z,10.44
2019-05-01T03:08:54.118Z,10.50
2019-05-01T03:11:24.564Z,10.46
2019-05-01T03:13:57.605Z,10.47
2019-05-01T03:16:28.195Z,10.44
2019-05-01T03:19:03.181Z,10.49
2019-05-01T03:21:38.387Z,10.53
2019-05-01T03:24:13.353Z,10.51
2019-05-01T03:26:45.190Z,10.55
2019-05-01T03:29:16.679Z,10.60
2019-05-01T03:32:13.335Z,10.48
2019-05-01T03:34:19.380Z,10.56
2019-05-01T03:36:50.046Z,10.51
2019-05-01T03:39:20.994Z,10.57
2019-05-01T03:41:51.547Z,10.56
2019-05-01T03:44:22.206Z,10.67
2019-05-01T03:46:52.877Z,10.71
2019-05-01T03:49:23.567Z,10.68
2019-05-01T03:51:55.127Z,10.69
2019-05-01T03:54:25.643Z,10.75
2019-05-01T03:56:56.173Z,10.79
2019-05-01T03:59:27.599Z,10.85
2019-05-01T04:02:32.808Z,10.87
2019-05-01T04:04:51.415Z,10.86
2019-05-01T04:07:21.946Z,10.93
2019-05-01T04:09:53.880Z,10.91
2019-05-01T04:12:24.369Z,10.96
2019-05-01T04:14:54.886Z,11.13
2019-05-01T04:17:31.115Z,11.08
2019-05-01T04:20:01.997Z,11.01
2019-05-01T04:22:32.686Z,11.15
2019-05-01T04:25:03.354Z,11.17
2019-05-01T04:27:35.801Z,11.21
2019-05-01T04:30:11.036Z,11.30
2019-05-01T04:32:52.571Z,11.30
2019-05-01T04:35:26.666Z,11.38
2019-05-01T04:37:57.381Z,11.52
2019-05-01T04:40:28.059Z,11.62
2019-05-01T04:43:00.605Z,11.62
2019-05-01T04:45:31.089Z,11.59
2019-05-01T04:48:01.607Z,11.77
2019-05-01T04:50:32.030Z,11.86
2019-05-01T04:53:02.540Z,11.90
2019-05-01T04:55:33.026Z,11.92
2019-05-01T04:58:05.025Z,11.83
2019-05-01T05:00:36.404Z,11.92
2019-05-01T05:03:08.441Z,11.97
2019-05-01T05:05:44.833Z,11.93
2019-05-01T05:08:15.833Z,12.02
2019-05-01T05:10:47.222Z,12.13
2019-05-01T05:13:20.278Z,12.28
2019-05-01T05:16:00.058Z,12.27
2019-05-01T05:18:30.553Z,12.40
2019-05-01T05:21:01.038Z,12.49
2019-05-01T05:23:32.725Z,12.53
2019-05-01T05:26:03.702Z,12.72
2019-05-01T05:28:39.119Z,12.82
2019-05-01T05:31:14.528Z,12.87
2019-05-01T05:33:46.440Z,12.97
2019-05-01T05:36:17.371Z,12.86
2019-05-01T05:38:49.676Z,12.74
2019-05-01T05:41:22.502Z,12.98
2019-05-01T05:43:53.332Z,13.15
2019-05-01T05:46:23.930Z,13.28
2019-05-01T05:48:54.578Z,13.31
2019-05-01T05:51:31.207Z,13.34
2019-05-01T05:54:10.107Z,13.50
2019-05-01T05:56:43.594Z,13.61
2019-05-01T05:59:16.154Z,13.58
2019-05-01T06:01:49.643Z,13.67
2019-05-01T06:04:23.808Z,13.78
2019-05-01T06:07:20.166Z,13.83
2019-05-01T06:09:53.446Z,14.10
2019-05-01T06:12:25.699Z,14.26
2019-05-01T06:15:05.867Z,14.33
2019-05-01T06:17:39.883Z,14.49
2019-05-01T06:20:25.717Z,14.74
2019-05-01T06:23:07.224Z,14.61
2019-05-01T06:25:40.687Z,14.88
2019-05-01T06:28:11.814Z,14.93
2019-05-01T06:30:47.229Z,14.88
2019-05-01T06:33:15.438Z,15.13
2019-05-01T06:35:46.847Z,15.13
2019-05-01T06:38:18.007Z,15.52
2019-05-01T06:40:53.142Z,15.37
2019-05-01T06:43:43.435Z,15.32
2019-05-01T06:46:14.414Z,15.52
2019-05-01T06:49:06.882Z,14.92
2019-05-01T06:51:41.436Z,14.74
2019-05-01T06:54:16.110Z,14.76
2019-05-01T06:56:47.303Z,14.71
2019-05-01T06:59:18.261Z,14.90
2019-05-01T07:01:53.035Z,15.23
2019-05-01T07:04:23.506Z,15.21
2019-05-01T07:06:53.979Z,15.19
2019-05-01T07:09:28.007Z,15.27
2019-05-01T07:11:57.310Z,14.68
2019-05-01T07:14:28.166Z,14.86
2019-05-01T07:16:58.545Z,15.06
2019-05-01T07:19:35.581Z,15.28
2019-05-01T07:22:06.342Z,14.95
2019-05-01T07:24:37.049Z,15.18
2019-05-01T07:27:09.503Z,14.87
2019-05-01T07:29:44.987Z,14.86
2019-05-01T07:32:15.146Z,15.13
2019-05-01T07:34:48.867Z,15.74
2019-05-01T07:37:20.795Z,15.80
2019-05-01T07:39:51.860Z,16.62
2019-05-01T07:42:29.618Z,16.23
2019-05-01T07:45:17.893Z,16.04
2019-05-01T07:47:51.471Z,15.78
2019-05-01T07:50:23.907Z,15.41
2019-05-01T07:52:55.252Z,15.74
2019-05-01T07:55:38.161Z,16.04
2019-05-01T07:58:15.193Z,16.52
2019-05-01T08:00:50.492Z,17.73
2019-05-01T08:03:21.223Z,17.82
2019-05-01T08:05:51.836Z,18.23
2019-05-01T08:08:22.485Z,18.52
2019-05-01T08:10:53.042Z,17.92
2019-05-01T08:13:24.562Z,17.95
2019-05-01T08:15:57.618Z,18.55
2019-05-01T08:18:32.429Z,18.62
2019-05-01T08:21:21.108Z,18.43
2019-05-01T08:23:52.245Z,19.07
2019-05-01T08:26:22.821Z,19.01
2019-05-01T08:29:08.118Z,18.59
2019-05-01T08:31:40.273Z,18.78
2019-05-01T08:34:12.360Z,19.18
2019-05-01T08:36:47.295Z,18.44
2019-05-01T08:39:14.902Z,18.31
2019-05-01T08:41:45.385Z,17.99
2019-05-01T08:44:15.876Z,18.05
2019-05-01T08:47:00.061Z,18.30
2019-05-01T08:49:33.148Z,18.34
2019-05-01T08:52:04.778Z,18.02
2019-05-01T08:54:35.729Z,18.11
2019-05-01T08:57:07.907Z,18.09
2019-05-01T08:59:40.403Z,18.02
2019-05-01T09:02:10.863Z,17.92
2019-05-01T09:04:41.572Z,18.51
2019-05-01T09:07:14.684Z,18.75
2019-05-01T09:09:47.291Z,18.57
2019-05-01T09:12:17.944Z,18.63
2019-05-01T09:14:51.288Z,18.79
2019-05-01T09:17:22.088Z,19.20
2019-05-01T09:19:52.649Z,18.94
2019-05-01T09:22:23.212Z,18.97
2019-05-01T09:24:53.665Z,19.19
2019-05-01T09:27:45.325Z,19.07
2019-05-01T09:30:21.674Z,19.10
2019-05-01T09:32:54.128Z,19.12
2019-05-01T09:35:21.823Z,19.43
2019-05-01T09:37:52.346Z,19.21
2019-05-01T09:40:22.849Z,19.03
2019-05-01T09:42:54.617Z,19.14
2019-05-01T09:45:26.594Z,19.16
2019-05-01T09:47:57.056Z,19.38
2019-05-01T09:50:30.380Z,19.14
2019-05-01T09:53:18.747Z,19.31
2019-05-01T09:55:56.860Z,20.10
2019-05-01T09:58:27.440Z,19.81
2019-05-01T10:01:00.762Z,19.51
2019-05-01T10:03:31.615Z,19.44
2019-05-01T10:06:03.298Z,19.44
2019-05-01T10:08:39.773Z,19.60
2019-05-01T10:11:07.118Z,19.67
2019-05-01T10:13:37.617Z,20.20
2019-05-01T10:16:08.074Z,20.62
2019-05-01T10:18:38.584Z,20.80
2019-05-01T10:21:09.041Z,20.98
2019-05-01T10:23:39.499Z,20.73
2019-05-01T10:26:11.598Z,20.88
2019-05-01T10:28:50.051Z,20.68
2019-05-01T10:31:20.275Z,19.99
2019-05-01T10:34:09.157Z,19.92
2019-05-01T10:36:41.405Z,20.40
2019-05-01T10:39:15.965Z,19.84
2019-05-01T10:41:47.870Z,20.16
2019-05-01T10:44:18.669Z,19.98
2019-05-01T10:46:49.135Z,20.38
2019-05-01T10:49:20.894Z,20.23
2019-05-01T10:51:51.967Z,20.65
2019-05-01T10:54:23.392Z,20.65
2019-05-01T10:56:53.897Z,20.49
2019-05-01T10:59:24.448Z,20.43
2019-05-01T11:01:56.530Z,20.56
2019-05-01T11:04:27.019Z,20.84
2019-05-01T11:06:57.671Z,20.69
2019-05-01T11:09:28.141Z,20.41
2019-05-01T11:12:04.499Z,20.45
2019-05-01T11:14:34.987Z,20.46
2019-05-01T11:17:05.537Z,20.61
2019-05-01T11:19:36.066Z,20.61
2019-05-01T11:22:06.544Z,20.60
2019-05-01T11:24:37.052Z,20.90
2019-05-01T11:27:08.118Z,20.79
2019-05-01T11:29:39.631Z,20.53
2019-05-01T11:32:20.914Z,20.46
2019-05-01T11:34:56.905Z,20.57
2019-05-01T11:37:31.704Z,20.81
2019-05-01T11:40:03.780Z,20.80
2019-05-01T11:42:34.309Z,20.94
2019-05-01T11:45:06.264Z,20.91
2019-05-01T11:47:37.138Z,20.63
2019-05-01T11:50:07.950Z,20.88
2019-05-01T11:52:38.405Z,21.01
2019-05-01T11:55:08.938Z,21.13
2019-05-01T11:57:39.406Z,21.30
2019-05-01T12:00:10.803Z,21.60
2019-05-01T12:02:41.243Z,21.49
2019-05-01T12:05:11.771Z,21.59
2019-05-01T12:07:42.304Z,21.24
2019-05-01T12:10:14.431Z,21.01
2019-05-01T12:12:45.202Z,21.23
2019-05-01T12:15:18.670Z,21.39
2019-05-01T12:17:50.357Z,21.30
2019-05-01T12:20:21.544Z,21.43
2019-05-01T12:22:52.018Z,21.57
2019-05-01T12:25:22.625Z,21.33
2019-05-01T12:27:53.240Z,21.27
2019-05-01T12:30:23.777Z,21.00
2019-05-01T12:32:56.324Z,20.98
2019-05-01T12:35:26.938Z,21.39
2019-05-01T12:37:59.044Z,21.17
2019-05-01T12:40:29.520Z,21.30
2019-05-01T12:43:03.721Z,21.06
2019-05-01T12:45:34.287Z,21.01
2019-05-01T12:48:04.806Z,21.21
2019-05-01T12:50:35.549Z,21.32
2019-05-01T12:53:10.964Z,21.53
2019-05-01T12:55:52.678Z,21.45
2019-05-01T12:58:23.114Z,20.97
2019-05-01T13:00:57.612Z,21.10
2019-05-01T13:03:28.175Z,21.34
2019-05-01T13:05:59.719Z,21.03
2019-05-01T13:08:30.242Z,21.05
2019-05-01T13:11:03.355Z,21.18
2019-05-01T13:13:33.814Z,21.42
2019-05-01T13:16:04.226Z,21.58
2019-05-01T13:18:34.668Z,21.42
2019-05-01T13:21:07.189Z,21.53
2019-05-01T13:23:37.745Z,21.42
2019-05-01T13:26:09.856Z,21.06
2019-05-01T13:28:41.928Z,20.90
2019-05-01T13:31:18.684Z,21.05
2019-05-01T13:33:49.148Z,20.87
2019-05-01T13:36:20.656Z,20.87
2019-05-01T13:38:51.102Z,20.77
2019-05-01T13:41:22.762Z,20.77
2019-05-01T13:43:53.419Z,20.96
2019-05-01T13:46:25.455Z,21.02
2019-05-01T13:48:55.926Z,20.97
2019-05-01T13:51:27.445Z,20.75
2019-05-01T13:53:58.993Z,20.78
2019-05-01T13:56:29.553Z,20.80
2019-05-01T13:59:00.070Z,20.76
2019-05-01T14:01:30.597Z,20.64
2019-05-01T14:04:01.096Z,20.57
2019-05-01T14:06:31.700Z,20.47
2019-05-01T14:09:02.267Z,20.41
2019-05-01T14:11:34.239Z,20.42
2019-05-01T14:14:04.757Z,20.43
2019-05-01T14:16:36.261Z,20.42
2019-05-01T14:19:07.788Z,20.41
2019-05-01T14:21:42.923Z,20.36
2019-05-01T14:24:27.075Z,20.21
2019-05-01T14:26:57.571Z,20.23
2019-05-01T14:29:28.083Z,20.20
2019-05-01T14:31:58.582Z,20.14
2019-05-01T14:34:33.710Z,20.16
2019-05-01T14:37:08.867Z,20.26
2019-05-01T14:39:40.414Z,20.22
2019-05-01T14:42:10.949Z,20.20
2019-05-01T14:44:42.512Z,20.20
2019-05-01T14:47:13.339Z,20.15
2019-05-01T14:49:44.326Z,20.12
2019-05-01T14:52:16.289Z,20.13
2019-05-01T14:54:46.809Z,20.09
2019-05-01T14:57:17.392Z,20.10
2019-05-01T14:59:47.959Z,20.22
2019-05-01T15:02:18.467Z,20.14
2019-05-01T15:04:49.001Z,20.24
2019-05-01T15:07:20.371Z,20.27
2019-05-01T15:09:50.800Z,20.28
2019-05-01T15:12:22.010Z,20.20
2019-05-01T15:14:57.267Z,20.24
2019-05-01T15:17:35.210Z,20.22
2019-05-01T15:20:06.717Z,20.17
2019-05-01T15:22:37.228Z,20.23
2019-05-01T15:25:07.733Z,20.19
2019-05-01T15:27:38.314Z,20.28
2019-05-01T15:30:10.214Z,20.24
2019-05-01T15:32:40.763Z,20.38
2019-05-01T15:35:12.390Z,20.30
2019-05-01T15:37:55.781Z,20.42
2019-05-01T15:40:16.690Z,20.43
2019-05-01T15:42:54.877Z,20.30
2019-05-01T15:45:26.805Z,20.40
2019-05-01T15:47:57.361Z,20.01
2019-05-01T15:50:27.899Z,19.94
2019-05-01T15:52:58.394Z,19.94
2019-05-01T15:55:28.858Z,20.19
2019-05-01T15:57:59.346Z,20.13
2019-05-01T16:00:29.911Z,20.17
2019-05-01T16:03:00.465Z,20.15
2019-05-01T16:05:30.941Z,19.83
2019-05-01T16:08:09.500Z,19.72
2019-05-01T16:10:38.027Z,19.73
2019-05-01T16:13:08.602Z,19.50
2019-05-01T16:15:39.208Z,19.44
2019-05-01T16:18:09.733Z,19.18
2019-05-01T16:20:40.282Z,19.05
2019-05-01T16:23:10.855Z,19.08
2019-05-01T16:25:42.472Z,18.89
2019-05-01T16:28:13.037Z,18.84
2019-05-01T16:30:43.545Z,18.63
2019-05-01T16:33:14.102Z,18.56
2019-05-01T16:35:44.574Z,18.44
2019-05-01T16:38:23.246Z,18.62
2019-05-01T16:40:56.612Z,18.52
2019-05-01T16:43:27.111Z,18.42
2019-05-01T16:45:59.651Z,18.29
2019-05-01T16:48:30.887Z,18.09
2019-05-01T16:51:01.368Z,18.21
2019-05-01T16:53:33.950Z,18.23
2019-05-01T16:56:04.432Z,18.32
2019-05-01T16:58:37.280Z,18.51
2019-05-01T17:01:09.444Z,18.58
2019-05-01T17:03:58.189Z,18.58
2019-05-01T17:06:49.516Z,18.69
2019-05-01T17:09:42.159Z,18.55
2019-05-01T17:12:13.835Z,18.57
2019-05-01T17:14:44.592Z,18.54
2019-05-01T17:17:16.665Z,18.52
2019-05-01T17:19:47.266Z,18.49
2019-05-01T17:22:17.753Z,18.40
2019-05-01T17:24:49.237Z,18.35
2019-05-01T17:27:19.705Z,18.29
2019-05-01T17:29:51.256Z,18.24
2019-05-01T17:32:21.863Z,18.16
2019-05-01T17:35:01.892Z,18.16
2019-05-01T17:37:31.345Z,18.04
2019-05-01T17:40:01.922Z,17.93
2019-05-01T17:42:32.980Z,17.88
2019-05-01T17:45:05.621Z,17.87
2019-05-01T17:47:36.135Z,17.82
2019-05-01T17:50:06.697Z,17.73
2019-05-01T17:52:38.232Z,17.74
2019-05-01T17:55:09.775Z,17.66
2019-05-01T17:57:40.478Z,17.62
2019-05-01T18:00:30.828Z,17.57
2019-05-01T18:03:06.847Z,17.54
2019-05-01T18:05:39.368Z,17.49
2019-05-01T18:08:10.854Z,17.41
2019-05-01T18:10:41.454Z,17.33
2019-05-01T18:13:13.041Z,17.27
2019-05-01T18:15:43.611Z,17.16
2019-05-01T18:18:16.528Z,17.14
2019-05-01T18:20:48.288Z,17.12
2019-05-01T18:23:37.606Z,17.03
2019-05-01T18:26:10.073Z,16.94
2019-05-01T18:29:00.733Z,16.86
2019-05-01T18:31:31.864Z,16.80
2019-05-01T18:34:04.484Z,16.75
2019-05-01T18:36:37.866Z,16.73
2019-05-01T18:39:17.126Z,16.68
2019-05-01T18:42:02.158Z,16.61
2019-05-01T18:44:33.949Z,16.56
2019-05-01T18:47:04.739Z,16.47
2019-05-01T18:49:36.244Z,16.48
2019-05-01T18:52:07.532Z,16.44
2019-05-01T18:54:38.020Z,16.38
2019-05-01T18:57:08.716Z,16.33
2019-05-01T18:59:39.217Z,16.25
2019-05-01T19:02:11.762Z,16.27
2019-05-01T19:04:42.254Z,16.21
2019-05-01T19:07:13.777Z,16.14
2019-05-01T19:09:44.305Z,16.07
2019-05-01T19:12:16.153Z,16.03
2019-05-01T19:14:46.875Z,15.98
2019-05-01T19:17:17.341Z,15.93
2019-05-01T19:19:48.818Z,15.93
2019-05-01T19:22:20.299Z,15.89
2019-05-01T19:24:50.972Z,15.89
2019-05-01T19:27:24.279Z,15.84
2019-05-01T19:29:53.768Z,15.78
2019-05-01T19:32:25.166Z,15.78
2019-05-01T19:34:55.646Z,15.81
2019-05-01T19:37:30.595Z,15.77
2019-05-01T19:39:59.330Z,15.77
2019-05-01T19:42:29.797Z,15.66
2019-05-01T19:45:00.089Z,15.62
2019-05-01T19:47:30.843Z,15.58
2019-05-01T19:50:07.167Z,15.50
2019-05-01T19:52:37.988Z,15.33
2019-05-01T19:55:10.203Z,15.29
2019-05-01T19:57:40.603Z,15.03
2019-05-01T20:00:12.355Z,14.92
2019-05-01T20:02:43.027Z,14.90
2019-05-01T20:05:14.475Z,14.79
2019-05-01T20:07:46.148Z,14.83
2019-05-01T20:10:18.066Z,14.76
2019-05-01T20:12:49.565Z,14.71
2019-05-01T20:15:24.893Z,14.71
2019-05-01T20:17:52.184Z,14.80
2019-05-01T20:20:22.679Z,14.73
2019-05-01T20:22:56.918Z,14.73
2019-05-01T20:25:27.434Z,14.71
2019-05-01T20:27:58.071Z,14.73
2019-05-01T20:30:28.595Z,14.70
2019-05-01T20:33:02.238Z,14.66
2019-05-01T20:35:34.148Z,14.70
2019-05-01T20:38:03.682Z,14.72
2019-05-01T20:40:34.169Z,14.73
2019-05-01T20:43:07.120Z,14.72
2019-05-01T20:45:37.902Z,14.76
2019-05-01T20:48:09.359Z,14.69
2019-05-01T20:50:40.924Z,14.62
2019-05-01T20:53:11.396Z,14.70
2019-05-01T20:55:45.556Z,14.70
2019-05-01T20:58:17.612Z,14.70
2019-05-01T21:00:53.480Z,14.61
2019-05-01T21:03:21.811Z,14.71
2019-05-01T21:05:56.867Z,14.61
2019-05-01T21:08:39.255Z,14.58
2019-05-01T21:11:10.969Z,14.57
2019-05-01T21:13:43.916Z,14.51
2019-05-01T21:16:14.420Z,14.47
2019-05-01T21:18:45.030Z,14.48
2019-05-01T21:21:15.589Z,14.45
2019-05-01T21:23:48.167Z,14.40
2019-05-01T21:26:18.202Z,14.35
2019-05-01T21:28:48.641Z,14.36
2019-05-01T21:31:19.131Z,14.39
2019-05-01T21:33:50.700Z,14.36
2019-05-01T21:36:22.186Z,14.35
2019-05-01T21:38:52.781Z,14.40
2019-05-01T21:41:23.305Z,14.41
2019-05-01T21:43:54.711Z,14.38
2019-05-01T21:46:28.170Z,14.35
2019-05-01T21:48:59.694Z,14.30
2019-05-01T21:51:30.336Z,14.26
2019-05-01T21:54:03.278Z,14.18
2019-05-01T21:56:36.863Z,14.14
2019-05-01T21:59:08.360Z,14.10
2019-05-01T22:01:38.318Z,14.04
2019-05-01T22:04:08.809Z,13.99
2019-05-01T22:06:39.270Z,13.96
2019-05-01T22:09:15.230Z,13.94
2019-05-01T22:11:47.321Z,13.89
2019-05-01T22:14:36.069Z,13.88
2019-05-01T22:17:06.399Z,13.84
2019-05-01T22:19:36.877Z,13.83
2019-05-01T22:22:11.667Z,13.81
2019-05-01T22:24:46.693Z,13.81
2019-05-01T22:27:21.473Z,13.78
2019-05-01T22:29:57.173Z,13.80
2019-05-01T22:32:34.331Z,13.74
2019-05-01T22:35:19.969Z,13.73
2019-05-01T22:37:50.473Z,13.68
2019-05-01T22:40:26.290Z,13.68
2019-05-01T22:42:57.826Z,13.72
2019-05-01T22:45:28.320Z,13.71
2019-05-01T22:47:59.883Z,13.64
2019-05-01T22:50:30.355Z,13.64
2019-05-01T22:53:00.865Z,13.61
2019-05-01T22:55:32.377Z,13.57
2019-05-01T22:58:03.891Z,13.57
2019-05-01T23:00:35.939Z,13.46
2019-05-01T23:03:08.028Z,13.40
2019-05-01T23:05:41.506Z,13.43
2019-05-01T23:08:12.094Z,13.44
2019-05-01T23:10:47.043Z,13.49
2019-05-01T23:13:14.613Z,13.43
2019-05-01T23:15:46.180Z,13.52
2019-05-01T23:18:17.762Z,13.53
2019-05-01T23:20:48.223Z,13.50
2019-05-01T23:23:18.727Z,13.55
2019-05-01T23:25:49.175Z,13.53
2019-05-01T23:28:19.670Z,13.55
2019-05-01T23:30:52.558Z,13.48
2019-05-01T23:33:23.094Z,13.39
2019-05-01T23:35:53.519Z,13.36
2019-05-01T23:38:24.050Z,13.30
2019-05-01T23:40:54.644Z,13.23
2019-05-01T23:43:27.852Z,13.16
2019-05-01T23:45:58.266Z,13.19
2019-05-01T23:48:28.762Z,13.15
2019-05-01T23:50:59.205Z,13.09
2019-05-01T23:53:29.585Z,13.14
2019-05-01T23:56:02.007Z,13.13
2019-05-01T23:58:33.316Z,13.13
